Time;durP1;ratioP1;P1;durP2;ratioP2;P2;SDS_P1;SDS_P2;PMS_P1;PMS_P2;Temp;Humidity;BMP_temperature;BMP_pressure;BME280_temperature;BME280_humidity;BME280_pressure;Samples;Min_cycle;Max_cycle;Signal;HPM_P1;HPM_P2
2022/11/29 00:01:23;;;;;;;;;6.75;6.75;;;;;13.75;64.51;101037.25;4994064;28;45440;-78
2022/11/29 00:03:49;;;;;;;;;6.75;6.75;;;;;13.52;64.42;100998.59;4993305;28;45418;-79
2022/11/29 00:06:17;;;;;;;;;7.25;7.25;;;;;13.77;64.41;101048.72;4992285;28;45610;-79
2022/11/29 00:08:43;;;;;;;;;6.50;6.50;;;;;13.72;64.53;101053.53;4974388;28;45386;-78
2022/11/29 00:11:13;;;;;;;;;7.50;6.25;;;;;13.74;64.48;101045.38;4995231;28;45467;-79
2022/11/29 00:13:39;;;;;;;;;5.50;5.00;;;;;13.77;64.38;101058.59;4996489;28;46345;-79
2022/11/29 00:16:08;;;;;;;;;6.50;5.75;;;;;13.67;64.61;101041.41;4996187;28;45446;-79
2022/11/29 00:18:34;;;;;;;;;6.50;6.50;;;;;13.43;64.54;101010.81;4988851;28;45509;-79
2022/11/29 00:21:05;;;;;;;;;7.00;5.25;;;;;13.36;64.47;101008.63;4992997;28;45501;-79
2022/11/29 00:23:30;;;;;;;;;6.50;6.25;;;;;13.69;64.53;101053.75;4993736;28;45492;-78
2022/11/29 00:26:05;;;;;;;;;7.50;5.50;;;;;13.72;64.28;101063.41;4992990;28;45794;-79
2022/11/29 00:28:30;;;;;;;;;8.00;6.25;;;;;13.64;64.60;101061.25;4993473;28;45650;-78
2022/11/29 00:30:56;;;;;;;;;6.75;6.75;;;;;13.61;64.64;101061.44;4989730;28;45427;-78
2022/11/29 00:33:21;;;;;;;;;8.75;6.25;;;;;13.50;65.09;101058.66;4994115;28;46196;-79
2022/11/29 00:35:46;;;;;;;;;6.50;5.25;;;;;13.52;64.60;101062.91;4992168;28;45348;-77
2022/11/29 00:38:12;;;;;;;;;5.00;5.00;;;;;13.55;64.84;101064.53;4993755;28;45509;-78
2022/11/29 00:40:37;;;;;;;;;7.75;5.00;;;;;13.57;65.01;101067.97;4976746;28;45570;-78
2022/11/29 00:43:02;;;;;;;;;6.00;6.00;;;;;13.55;64.57;101068.09;4995180;28;46276;-77
2022/11/29 00:45:28;;;;;;;;;5.00;5.00;;;;;13.51;64.81;101061.22;4978336;28;45373;-78
2022/11/29 00:47:53;;;;;;;;;3.00;3.00;;;;;13.19;64.52;101012.41;4995988;28;45343;-78
2022/11/29 00:50:19;;;;;;;;;5.25;5.00;;;;;13.01;64.80;100976.97;4996056;28;45400;-78
2022/11/29 00:52:44;;;;;;;;;5.00;5.00;;;;;13.49;64.36;101064.97;4995649;28;45423;-78
2022/11/29 00:55:09;;;;;;;;;7.25;7.25;;;;;13.43;64.47;101059.03;4995827;28;45402;-78
2022/11/29 00:57:35;;;;;;;;;10.25;6.00;;;;;13.43;64.33;101069.75;4993725;28;45399;-78
2022/11/29 01:00:00;;;;;;;;;10.75;10.75;;;;;13.42;64.78;101062.66;4983960;28;45479;-78
2022/11/29 01:02:25;;;;;;;;;11.00;9.00;;;;;13.40;64.66;101058.38;4975694;28;46016;-79
2022/11/29 01:04:51;;;;;;;;;8.00;8.00;;;;;13.41;64.15;101060.94;4925526;28;1448797;-78
2022/11/29 01:07:16;;;;;;;;;10.75;8.00;;;;;13.29;64.49;101051.00;4976646;28;45423;-78
2022/11/29 01:09:42;;;;;;;;;4.75;3.00;;;;;13.06;64.70;101017.72;4976876;28;45417;-77
2022/11/29 01:12:07;;;;;;;;;9.00;6.50;;;;;13.30;64.37;101068.81;4975533;28;46195;-78
2022/11/29 01:14:32;;;;;;;;;8.75;8.75;;;;;12.77;64.95;100994.53;4976789;28;45396;-78
2022/11/29 01:16:58;;;;;;;;;9.25;9.25;;;;;13.25;65.05;101076.28;4979457;28;45888;-78
2022/11/29 01:19:23;;;;;;;;;6.25;6.25;;;;;13.16;65.25;101071.53;4968620;28;45390;-78
2022/11/29 01:21:49;;;;;;;;;7.00;6.75;;;;;13.20;64.62;101081.97;4995425;28;46835;-79
2022/11/29 01:24:14;;;;;;;;;6.00;5.00;;;;;13.23;64.63;101080.91;4996267;28;45372;-77
2022/11/29 01:26:39;;;;;;;;;5.50;5.50;;;;;13.25;64.46;101090.56;4996387;28;45375;-78
2022/11/29 01:29:05;;;;;;;;;5.00;5.00;;;;;13.26;63.91;101088.72;4995967;28;45278;-79
2022/11/29 01:31:35;;;;;;;;;8.25;6.50;;;;;13.26;63.99;101078.88;4996194;28;47197;-78
2022/11/29 01:34:02;;;;;;;;;7.75;7.75;;;;;13.23;63.50;101084.44;4995859;28;45478;-79
2022/11/29 01:36:28;;;;;;;;;7.00;6.00;;;;;13.16;64.55;101091.16;4995963;28;45470;-79
2022/11/29 01:38:54;;;;;;;;;9.00;6.50;;;;;13.15;64.02;101093.94;4996060;28;45427;-78
2022/11/29 01:41:25;;;;;;;;;6.25;6.25;;;;;13.17;63.88;101094.69;4996121;28;46010;-78
2022/11/29 01:43:55;;;;;;;;;5.00;5.00;;;;;13.21;64.03;101090.84;4995900;28;45443;-77
2022/11/29 01:46:21;;;;;;;;;6.00;5.25;;;;;13.19;63.56;101096.31;4986925;28;45667;-77
2022/11/29 01:48:47;;;;;;;;;6.75;6.75;;;;;13.19;63.99;101106.16;4962996;28;45513;-77
2022/11/29 01:51:13;;;;;;;;;8.75;8.75;;;;;12.48;63.75;100985.69;4978354;28;45378;-78
2022/11/29 01:53:38;;;;;;;;;5.50;4.50;;;;;13.21;63.32;101112.28;4977772;28;45420;-78
2022/11/29 01:56:05;;;;;;;;;6.00;6.00;;;;;13.17;63.07;101105.41;4975071;28;45618;-79
2022/11/29 01:58:31;;;;;;;;;8.75;7.75;;;;;13.16;63.82;101117.06;4976315;28;45470;-79
2022/11/29 02:00:59;;;;;;;;;5.75;5.75;;;;;13.18;63.61;101109.81;4975914;28;46272;-79
2022/11/29 02:03:24;;;;;;;;;8.50;8.00;;;;;12.82;63.49;101050.47;4975939;28;45392;-78
2022/11/29 02:05:51;;;;;;;;;7.00;5.00;;;;;13.24;63.74;101120.09;4975949;28;45476;-78
2022/11/29 02:08:26;;;;;;;;;6.00;6.00;;;;;13.26;63.66;101121.72;4975124;28;45359;-79
2022/11/29 02:11:14;;;;;;;;;6.75;6.75;;;;;13.28;64.06;101122.50;4976253;28;46840;-78
2022/11/29 02:13:48;;;;;;;;;9.00;5.00;;;;;13.33;63.95;101132.06;4975108;28;45579;-78
2022/11/29 02:16:25;;;;;;;;;6.25;5.25;;;;;13.33;64.47;101124.88;4977948;28;45348;-79
2022/11/29 02:19:10;;;;;;;;;6.75;6.75;;;;;13.38;64.21;101136.19;4984627;28;45812;-78
2022/11/29 02:21:44;;;;;;;;;8.50;8.25;;;;;13.41;64.54;101130.63;4975861;28;45451;-78
2022/11/29 02:24:46;;;;;;;;;8.00;8.00;;;;;13.39;64.70;101140.59;4975751;28;45529;-79
2022/11/29 02:27:59;;;;;;;;;13.75;10.75;;;;;13.39;65.03;101135.22;4975520;28;45468;-78
2022/11/29 02:30:49;;;;;;;;;12.00;10.00;;;;;13.42;65.00;101139.53;4975684;28;45350;-78
2022/11/29 02:34:18;;;;;;;;;9.50;9.50;;;;;13.46;65.15;101133.03;4974418;28;46163;-78
2022/11/29 02:37:02;;;;;;;;;12.75;11.75;;;;;13.49;65.22;101137.31;4858323;29;45801;-77
2022/11/29 02:40:05;;;;;;;;;15.75;12.00;;;;;13.50;65.38;101145.25;4858492;29;45555;-78
2022/11/29 02:42:50;;;;;;;;;13.75;11.00;;;;;13.52;65.25;101151.34;4766906;29;45604;-78
2022/11/29 02:45:53;;;;;;;;;11.75;10.75;;;;;13.58;65.55;101144.75;4766823;29;47345;-78
2022/11/29 02:48:54;;;;;;;;;12.50;12.25;;;;;13.60;65.54;101141.03;4770921;29;45438;-77
2022/11/29 02:51:31;;;;;;;;;11.50;11.50;;;;;13.68;65.57;101145.84;4776613;29;45474;-77
2022/11/29 02:54:11;;;;;;;;;12.50;11.00;;;;;13.74;65.47;101141.91;4784864;29;45524;-78
2022/11/29 02:56:46;;;;;;;;;11.50;11.50;;;;;13.75;65.34;101133.78;4784960;29;46394;-78
2022/11/29 02:59:39;;;;;;;;;12.50;10.25;;;;;13.73;65.52;101130.31;4785016;29;45475;-78
2022/11/29 03:02:37;;;;;;;;;12.50;9.50;;;;;13.76;65.54;101135.47;4783679;29;45569;-78
2022/11/29 03:05:11;;;;;;;;;11.75;11.00;;;;;13.79;65.50;101145.13;4766582;29;45484;-79
2022/11/29 03:07:55;;;;;;;;;10.00;10.00;;;;;13.82;65.48;101144.09;4766095;29;47140;-77
2022/11/29 03:10:35;;;;;;;;;12.25;10.75;;;;;13.90;65.54;101144.44;4766240;29;45564;-77
2022/11/29 03:13:04;;;;;;;;;14.00;12.75;;;;;13.90;65.51;101142.63;4839376;29;45471;-77
2022/11/29 03:15:51;;;;;;;;;10.50;10.00;;;;;13.90;65.59;101147.09;4865190;28;45476;-77
2022/11/29 03:18:49;;;;;;;;;11.50;11.25;;;;;13.94;65.39;101143.25;4974678;28;45501;-78
2022/11/29 03:21:34;;;;;;;;;9.25;9.00;;;;;13.86;65.23;101130.38;4974769;28;45419;-78
2022/11/29 03:24:33;;;;;;;;;10.00;8.25;;;;;13.66;65.40;101102.22;4986190;28;46021;-79
2022/11/29 03:27:05;;;;;;;;;10.75;9.50;;;;;13.96;65.16;101168.16;4957044;28;45377;-78
2022/11/29 03:29:51;;;;;;;;;10.50;8.50;;;;;13.95;65.58;101161.94;4991073;28;45455;-78
2022/11/29 03:32:25;;;;;;;;;10.00;9.00;;;;;13.96;65.75;101168.16;4974524;28;45476;-77
2022/11/29 03:35:01;;;;;;;;;14.50;6.50;;;;;13.99;65.50;101170.63;4985617;28;45447;-78
2022/11/29 03:38:01;;;;;;;;;11.75;10.25;;;;;14.01;65.78;101170.53;4974891;28;45408;-79
2022/11/29 03:40:38;;;;;;;;;12.00;8.50;;;;;14.08;65.39;101177.22;4951523;28;46535;-78
2022/11/29 03:43:19;;;;;;;;;9.25;9.00;;;;;14.11;65.19;101183.22;4974554;28;45428;-78
2022/11/29 03:45:54;;;;;;;;;12.25;7.75;;;;;14.15;65.10;101180.34;4974320;28;45447;-77
2022/11/29 03:48:26;;;;;;;;;9.75;9.75;;;;;14.14;64.86;101190.19;4974600;28;45407;-79
2022/11/29 03:51:25;;;;;;;;;10.75;10.00;;;;;14.22;65.11;101189.69;4974322;28;47287;-78
2022/11/29 03:53:56;;;;;;;;;2.75;1.50;;;;;14.21;64.74;101196.00;4974287;28;45654;-78
2022/11/29 03:56:37;;;;;;;;;9.25;7.50;;;;;14.20;65.09;101188.91;4985832;28;45682;-79
2022/11/29 03:59:24;;;;;;;;;10.25;9.50;;;;;14.13;64.49;101189.34;4974599;28;45606;-78
2022/11/29 04:02:23;;;;;;;;;9.50;9.50;;;;;14.12;65.26;101190.31;4974169;28;46011;-78
2022/11/29 04:05:07;;;;;;;;;11.50;10.25;;;;;14.12;65.13;101195.66;4974128;28;45502;-78
2022/11/29 04:07:42;;;;;;;;;9.25;9.25;;;;;14.15;65.31;101188.41;4974181;28;45420;-78
2022/11/29 04:10:17;;;;;;;;;12.75;10.00;;;;;13.71;65.24;101118.88;4974141;28;45395;-78
2022/11/29 04:13:24;;;;;;;;;8.25;8.25;;;;;14.16;65.05;101195.47;4980202;28;48825;-78
2022/11/29 04:16:10;;;;;;;;;10.00;10.00;;;;;14.21;64.79;101198.69;4965925;28;45848;-78
2022/11/29 04:19:07;;;;;;;;;8.75;8.75;;;;;14.19;65.05;101201.50;4974172;28;45407;-78
2022/11/29 04:21:42;;;;;;;;;11.25;8.00;;;;;14.16;64.72;101203.50;4974085;28;45427;-78
2022/11/29 04:24:35;;;;;;;;;7.50;7.50;;;;;14.02;64.83;101204.44;4974506;28;45543;-78
2022/11/29 04:27:33;;;;;;;;;12.00;11.00;;;;;14.09;64.92;101221.84;4986792;28;45481;-78
2022/11/29 04:30:21;;;;;;;;;9.50;9.50;;;;;14.10;65.18;101212.84;4916668;28;45742;-78
2022/11/29 04:32:59;;;;;;;;;14.00;11.75;;;;;14.16;65.29;101224.97;4932977;28;45314;-79
2022/11/29 04:35:48;;;;;;;;;8.50;8.50;;;;;14.09;64.37;101228.09;4932607;28;45510;-77
2022/11/29 04:38:34;;;;;;;;;8.75;5.00;;;;;13.96;64.46;101221.81;4952640;28;45562;-77
2022/11/29 04:41:27;;;;;;;;;10.75;10.75;;;;;13.78;64.77;101200.59;4971541;28;45689;-77
2022/11/29 04:44:04;;;;;;;;;10.00;8.00;;;;;13.98;65.51;101235.97;4970956;28;45555;-78
2022/11/29 04:46:54;;;;;;;;;11.00;9.50;;;;;14.03;65.45;101243.72;4970984;28;47308;-78
2022/11/29 04:49:40;;;;;;;;;10.50;9.75;;;;;14.05;65.19;101237.28;4960391;28;45617;-78
2022/11/29 04:52:30;;;;;;;;;11.00;11.00;;;;;14.00;64.73;101238.56;4951906;28;45504;-78
2022/11/29 04:55:13;;;;;;;;;10.50;10.50;;;;;13.99;65.41;101240.38;4952027;28;45525;-78
2022/11/29 04:57:48;;;;;;;;;13.75;13.25;;;;;14.02;65.24;101231.25;4954928;28;47186;-78
2022/11/29 05:00:23;;;;;;;;;7.75;7.75;;;;;14.07;65.06;101240.72;4936762;28;45833;-79
2022/11/29 05:02:57;;;;;;;;;9.50;7.50;;;;;14.02;65.06;101236.63;4944189;28;45608;-78
2022/11/29 05:05:53;;;;;;;;;11.00;11.00;;;;;14.06;65.06;101255.13;4935572;28;45496;-78
2022/11/29 05:08:48;;;;;;;;;9.25;9.25;;;;;14.05;65.25;101256.06;4976805;28;46141;-77
2022/11/29 05:11:17;;;;;;;;;8.50;7.50;;;;;14.01;64.85;101251.00;4966046;28;45384;-77
2022/11/29 05:13:52;;;;;;;;;8.75;8.75;;;;;14.07;65.15;101259.50;4976950;28;45516;-77
2022/11/29 05:16:26;;;;;;;;;11.75;10.75;;;;;14.08;64.90;101263.06;4976823;28;45410;-78
2022/11/29 05:19:13;;;;;;;;;10.00;10.00;;;;;14.07;64.67;101262.19;4976523;28;46389;-78
2022/11/29 05:21:56;;;;;;;;;9.25;9.00;;;;;14.05;64.63;101265.91;4976425;28;45355;-78
2022/11/29 05:24:27;;;;;;;;;9.75;9.00;;;;;14.04;64.68;101273.13;4979848;28;45424;-78
2022/11/29 05:27:14;;;;;;;;;11.25;11.00;;;;;13.98;64.68;101273.50;4996156;28;45398;-78
2022/11/29 05:29:45;;;;;;;;;11.25;11.25;;;;;13.94;64.70;101269.31;4995825;28;46224;-78
2022/11/29 05:32:34;;;;;;;;;11.25;11.25;;;;;13.93;64.82;101281.03;4996345;28;45442;-78
2022/11/29 05:35:18;;;;;;;;;11.50;10.00;;;;;13.91;64.48;101280.25;4996283;28;45364;-78
2022/11/29 05:37:53;;;;;;;;;12.75;11.50;;;;;13.89;64.36;101287.53;4996160;28;45399;-78
2022/11/29 05:40:39;;;;;;;;;11.50;11.25;;;;;13.91;64.88;101288.28;4989015;28;45890;-78
2022/11/29 05:43:29;;;;;;;;;10.50;9.50;;;;;13.86;65.03;101287.72;4977337;28;45654;-78
2022/11/29 05:45:59;;;;;;;;;17.00;14.50;;;;;13.82;65.05;101284.41;4976368;28;45740;-77
2022/11/29 05:48:53;;;;;;;;;12.25;12.25;;;;;13.27;64.71;101206.50;4976114;28;45539;-78
2022/11/29 05:51:40;;;;;;;;;13.00;12.25;;;;;13.72;65.10;101304.69;4975911;28;45581;-78
2022/11/29 05:54:39;;;;;;;;;18.50;14.75;;;;;13.72;65.24;101300.19;4980857;28;45444;-78
2022/11/29 05:57:27;;;;;;;;;11.25;11.25;;;;;13.67;65.35;101302.31;4967083;28;45666;-78
2022/11/29 05:59:56;;;;;;;;;19.75;17.75;;;;;13.71;65.25;101314.56;4976306;28;45539;-79
2022/11/29 06:02:46;;;;;;;;;13.75;12.00;;;;;13.67;65.13;101312.16;4976281;28;46196;-79
2022/11/29 06:05:30;;;;;;;;;14.00;14.00;;;;;13.67;65.04;101315.72;4974957;28;45604;-78
2022/11/29 06:08:33;;;;;;;;;18.00;15.50;;;;;13.64;64.89;101313.22;4975216;28;45498;-78
2022/11/29 06:11:20;;;;;;;;;11.00;11.00;;;;;13.69;65.42;101327.19;4976019;28;45785;-78
2022/11/29 06:14:08;;;;;;;;;16.25;16.00;;;;;13.70;65.08;101320.88;4975793;28;46228;-79
2022/11/29 06:16:37;;;;;;;;;14.25;12.50;;;;;13.71;65.24;101325.31;4975889;28;45619;-78
2022/11/29 06:19:33;;;;;;;;;17.50;16.00;;;;;13.53;65.47;101316.59;4975707;28;45304;-78
2022/11/29 06:22:01;;;;;;;;;14.75;14.25;;;;;13.33;65.60;101324.97;4975819;28;45614;-78
2022/11/29 06:25:02;;;;;;;;;13.25;13.25;;;;;13.28;66.41;101336.84;4981983;28;46062;-78
2022/11/29 06:27:36;;;;;;;;;20.75;19.25;;;;;13.38;65.78;101334.47;4915039;28;45584;-78
2022/11/29 06:30:08;;;;;;;;;16.25;13.50;;;;;13.41;65.16;101339.63;4934426;28;45538;-79
2022/11/29 06:32:36;;;;;;;;;16.00;14.25;;;;;13.39;65.38;101346.06;4934500;28;45405;-83
2022/11/29 06:35:01;;;;;;;;;22.50;18.75;;;;;13.35;65.42;101340.00;4934213;28;45497;-81
2022/11/29 06:37:37;;;;;;;;;13.75;13.75;;;;;13.32;65.47;101350.03;4934120;28;45501;-81
2022/11/29 06:40:03;;;;;;;;;19.50;14.25;;;;;13.23;64.94;101332.72;4928840;28;45503;-78
2022/11/29 06:42:29;;;;;;;;;15.50;14.00;;;;;13.21;65.05;101342.66;4914262;28;45468;-78
2022/11/29 06:44:54;;;;;;;;;17.50;17.00;;;;;13.28;65.20;101350.22;4914418;28;46156;-78
2022/11/29 06:47:25;;;;;;;;;9.75;9.75;;;;;13.24;64.49;101356.75;4903442;28;45443;-78
2022/11/29 06:50:22;;;;;;;;;16.25;15.00;;;;;13.19;64.07;101363.34;4914784;28;45497;-78
2022/11/29 06:53:10;;;;;;;;;21.75;20.75;;;;;13.15;64.78;101348.41;4914874;28;45553;-78
2022/11/29 06:56:01;;;;;;;;;24.25;20.00;;;;;12.84;64.56;101302.03;4914316;28;45549;-78
2022/11/29 06:58:45;;;;;;;;;19.00;17.25;;;;;13.05;65.10;101365.03;4914553;28;45482;-78
2022/11/29 07:01:38;;;;;;;;;21.50;20.50;;;;;12.97;65.05;101372.66;4914533;28;45485;-78
2022/11/29 07:04:28;;;;;;;;;22.75;21.75;;;;;12.93;64.79;101368.44;4936800;28;45533;-78
2022/11/29 07:06:54;;;;;;;;;23.25;19.00;;;;;12.93;65.06;101384.50;4994724;28;47214;-78
2022/11/29 07:09:24;;;;;;;;;17.50;17.50;;;;;12.91;64.57;101376.53;4994136;28;45670;-77
2022/11/29 07:11:50;;;;;;;;;22.00;20.50;;;;;12.91;64.51;101384.56;4994524;28;45423;-78
2022/11/29 07:14:15;;;;;;;;;21.00;19.25;;;;;12.66;64.97;101347.69;4994516;28;45388;-78
2022/11/29 07:17:13;;;;;;;;;19.75;19.75;;;;;12.83;64.89;101386.00;4993703;28;45505;-78
2022/11/29 07:20:02;;;;;;;;;22.25;19.75;;;;;12.75;64.54;101383.75;4914010;28;45494;-78
2022/11/29 07:22:45;;;;;;;;;21.00;20.50;;;;;12.82;64.13;101394.97;4898365;28;45406;-78
2022/11/29 07:25:22;;;;;;;;;21.00;21.00;;;;;12.82;64.01;101389.63;4914166;28;45502;-78
2022/11/29 07:28:21;;;;;;;;;22.50;17.50;;;;;12.80;64.08;101395.06;4916433;28;45591;-78
2022/11/29 07:30:56;;;;;;;;;21.50;16.75;;;;;12.79;63.98;101390.66;4933377;28;45430;-78
2022/11/29 07:33:51;;;;;;;;;16.75;14.75;;;;;12.44;63.81;101340.91;4933783;28;45537;-78
2022/11/29 07:36:22;;;;;;;;;17.75;17.50;;;;;12.74;63.37;101395.41;4933144;28;45416;-79
2022/11/29 07:38:53;;;;;;;;;23.25;21.25;;;;;12.67;63.22;101397.56;4932890;28;46326;-78
2022/11/29 07:41:55;;;;;;;;;19.25;17.00;;;;;12.65;63.24;101398.63;4933094;28;45480;-78
2022/11/29 07:44:41;;;;;;;;;19.75;18.00;;;;;12.66;63.75;101406.59;4933352;28;45395;-77
2022/11/29 07:47:07;;;;;;;;;24.50;21.25;;;;;12.64;62.91;101394.22;4907739;28;45541;-77
2022/11/29 07:49:33;;;;;;;;;23.25;18.75;;;;;12.64;63.48;101407.63;4913773;28;46180;-77
2022/11/29 07:51:58;;;;;;;;;19.50;19.50;;;;;12.60;63.00;101412.28;4913896;28;45452;-78
2022/11/29 07:54:23;;;;;;;;;25.50;22.25;;;;;12.64;63.09;101418.31;4921970;28;45438;-79
2022/11/29 07:56:49;;;;;;;;;17.75;16.75;;;;;12.62;63.31;101418.41;4974528;28;45321;-79
2022/11/29 07:59:14;;;;;;;;;27.75;23.75;;;;;12.61;63.05;101424.72;4973605;28;45362;-80
2022/11/29 08:01:40;;;;;;;;;29.00;25.50;;;;;12.37;63.41;101385.00;4974219;28;45501;-79
2022/11/29 08:04:07;;;;;;;;;32.00;30.00;;;;;12.60;62.82;101417.63;4974595;28;45450;-79
2022/11/29 08:06:32;;;;;;;;;33.00;26.75;;;;;12.53;63.03;101416.25;4981958;28;45570;-79
2022/11/29 08:08:59;;;;;;;;;28.00;27.00;;;;;12.51;63.40;101412.78;4987125;28;46164;-79
2022/11/29 08:11:25;;;;;;;;;32.00;29.75;;;;;12.59;63.70;101421.25;4993263;28;45438;-79
2022/11/29 08:14:01;;;;;;;;;32.75;28.75;;;;;12.60;63.14;101418.47;4992572;28;45400;-80
2022/11/29 08:16:27;;;;;;;;;31.25;30.25;;;;;12.60;63.27;101428.34;4990984;28;45625;-79
2022/11/29 08:18:52;;;;;;;;;26.75;26.75;;;;;12.57;63.70;101434.72;4993538;28;46595;-78
2022/11/29 08:21:17;;;;;;;;;30.50;28.75;;;;;12.61;63.70;101433.59;4992989;28;45440;-78
2022/11/29 08:23:44;;;;;;;;;33.00;29.25;;;;;12.58;64.01;101436.44;4993913;28;45428;-78
2022/11/29 08:26:09;;;;;;;;;29.75;26.00;;;;;12.55;64.09;101430.41;4993807;28;45353;-78
2022/11/29 08:28:34;;;;;;;;;20.75;20.75;;;;;12.59;63.97;101445.34;4992189;28;45444;-78
2022/11/29 08:31:03;;;;;;;;;24.50;22.50;;;;;12.60;64.42;101439.88;4994751;28;45496;-79
2022/11/29 08:33:29;;;;;;;;;29.25;28.75;;;;;12.37;64.22;101405.56;4997050;28;45697;-77
2022/11/29 08:35:55;;;;;;;;;34.75;30.75;;;;;12.01;64.67;101347.81;4979197;28;45500;-78
2022/11/29 08:38:20;;;;;;;;;32.00;30.25;;;;;12.65;64.44;101455.69;4996881;28;47381;-77
2022/11/29 08:40:46;;;;;;;;;44.50;37.75;;;;;12.70;65.02;101458.09;4996847;28;45464;-78
2022/11/29 08:43:11;;;;;;;;;39.00;35.75;;;;;12.75;64.82;101461.38;4979477;28;45365;-78
2022/11/29 08:45:36;;;;;;;;;43.00;38.75;;;;;12.77;64.62;101473.75;4997117;28;45514;-78
2022/11/29 08:48:02;;;;;;;;;41.00;33.50;;;;;12.77;64.65;101483.59;4996567;28;46923;-78
2022/11/29 08:50:27;;;;;;;;;42.00;33.25;;;;;12.82;64.52;101486.00;4996427;28;45450;-78
2022/11/29 08:55:41;;;;;;;;;31.75;30.00;;;;;12.51;64.74;101498.44;4996958;28;45406;-79
2022/11/29 08:58:10;;;;;;;;;35.25;33.25;;;;;12.41;65.06;101498.06;4996800;28;47104;-78
2022/11/29 09:00:36;;;;;;;;;34.00;30.75;;;;;12.14;65.57;101508.47;4996735;28;45429;-79
2022/11/29 09:05:48;;;;;;;;;37.25;34.00;;;;;12.05;65.92;101501.78;4996867;28;45462;-79
2022/11/29 09:08:13;;;;;;;;;39.25;34.50;;;;;12.17;65.98;101506.47;4996760;28;45422;-79
2022/11/29 09:10:40;;;;;;;;;36.00;33.50;;;;;12.32;65.47;101507.47;4996838;28;45615;-79
2022/11/29 09:13:06;;;;;;;;;46.25;34.25;;;;;12.41;66.13;101516.81;4996624;28;45570;-79
2022/11/29 09:15:31;;;;;;;;;41.50;33.50;;;;;12.42;65.74;101518.53;4996543;28;45399;-79
2022/11/29 09:17:57;;;;;;;;;38.50;35.00;;;;;12.47;66.46;101519.16;4996247;28;45439;-79
2022/11/29 09:20:22;;;;;;;;;35.25;31.00;;;;;12.51;65.70;101523.41;4996085;28;45510;-79
2022/11/29 09:22:47;;;;;;;;;42.00;34.50;;;;;12.36;65.98;101533.13;4996899;28;45497;-79
2022/11/29 09:25:13;;;;;;;;;37.50;35.00;;;;;12.26;65.86;101531.88;4971118;28;45764;-79
2022/11/29 09:27:40;;;;;;;;;38.75;32.75;;;;;11.94;66.42;101492.56;4977931;28;46955;-79
2022/11/29 09:30:07;;;;;;;;;39.25;33.00;;;;;12.42;66.55;101543.47;4962732;28;45858;-79
2022/11/29 09:32:33;;;;;;;;;47.00;39.50;;;;;12.60;65.61;101548.78;4994965;28;45376;-79
2022/11/29 09:34:59;;;;;;;;;44.25;34.00;;;;;12.52;64.63;101543.84;4984389;28;45409;-79
2022/11/29 09:37:24;;;;;;;;;33.75;32.00;;;;;12.12;65.39;101548.69;4995826;28;47317;-79
2022/11/29 09:39:49;;;;;;;;;33.25;27.75;;;;;12.17;66.29;101564.47;4996180;28;45372;-79
2022/11/29 09:42:36;;;;;;;;;40.50;35.00;;;;;11.90;66.60;101501.66;4996132;28;45450;-79
2022/11/29 09:45:40;;;;;;;;;38.50;33.50;;;;;12.42;65.91;101559.53;4996081;28;45581;-78
2022/11/29 09:48:20;;;;;;;;;45.00;38.25;;;;;12.54;65.79;101563.38;4934454;28;47121;-78
2022/11/29 09:50:58;;;;;;;;;42.25;36.25;;;;;12.74;65.67;101559.59;4934834;28;45415;-78
2022/11/29 09:53:38;;;;;;;;;49.50;38.25;;;;;12.87;65.27;101574.97;4935078;28;45427;-78
2022/11/29 09:56:15;;;;;;;;;44.50;39.75;;;;;12.91;64.65;101566.66;4935124;28;45477;-79
2022/11/29 09:58:48;;;;;;;;;35.75;34.25;;;;;12.84;63.41;101580.50;4919104;28;46965;-79
2022/11/29 10:01:20;;;;;;;;;34.50;32.50;;;;;12.67;63.89;101587.63;4934520;28;45588;-79
2022/11/29 10:03:51;;;;;;;;;31.00;27.00;;;;;12.56;64.32;101547.22;4934772;28;45513;-79
2022/11/29 10:06:33;;;;;;;;;32.25;28.25;;;;;12.83;64.74;101590.31;4934696;28;45445;-79
2022/11/29 10:09:11;;;;;;;;;27.50;26.00;;;;;12.88;63.98;101585.59;4934342;28;45550;-78
2022/11/29 10:11:42;;;;;;;;;33.50;27.25;;;;;12.89;63.43;101591.78;4934449;28;45441;-80
2022/11/29 10:14:21;;;;;;;;;30.00;26.25;;;;;12.98;64.12;101585.06;4934401;28;45496;-79
2022/11/29 10:16:54;;;;;;;;;31.75;29.75;;;;;13.17;64.29;101590.25;4934946;28;45514;-78
2022/11/29 10:19:32;;;;;;;;;32.75;28.00;;;;;13.24;63.23;101589.81;4934864;28;45476;-79
2022/11/29 10:22:23;;;;;;;;;42.25;35.00;;;;;13.38;63.64;101589.06;4935033;28;45553;-79
2022/11/29 10:24:52;;;;;;;;;55.75;45.50;;;;;13.24;63.81;101536.25;4983917;28;45504;-78
2022/11/29 10:27:22;;;;;;;;;38.25;35.50;;;;;13.58;63.32;101582.53;4978152;28;45326;-79
2022/11/29 10:29:50;;;;;;;;;37.00;33.75;;;;;13.42;62.36;101587.94;4995336;28;45316;-78
2022/11/29 10:32:16;;;;;;;;;39.50;34.00;;;;;13.47;63.07;101595.72;4995255;28;45332;-78
2022/11/29 10:34:42;;;;;;;;;33.00;29.75;;;;;13.49;63.30;101577.72;4995417;28;45411;-79
2022/11/29 10:37:16;;;;;;;;;28.75;28.25;;;;;13.74;62.40;101598.59;4995279;28;45566;-79
2022/11/29 10:39:51;;;;;;;;;33.00;32.00;;;;;13.84;62.31;101592.69;4995394;28;45552;-80
2022/11/29 10:45:20;;;;;;;;;35.75;31.75;;;;;13.82;62.11;101595.47;4975613;28;45725;-79
2022/11/29 10:47:48;;;;;;;;;31.00;29.25;;;;;13.86;62.43;101602.38;4975172;28;45503;-79
2022/11/29 10:50:22;;;;;;;;;43.75;35.75;;;;;14.02;62.29;101596.91;4975393;28;45351;-78
2022/11/29 10:52:48;;;;;;;;;38.75;33.25;;;;;14.11;62.33;101603.56;4974853;28;45427;-78
2022/11/29 10:55:15;;;;;;;;;39.00;35.25;;;;;14.15;62.10;101602.41;4974630;28;45348;-78
2022/11/29 10:58:10;;;;;;;;;27.50;24.75;;;;;14.15;61.80;101609.63;4975459;28;45348;-78
2022/11/29 11:01:07;;;;;;;;;35.75;27.25;;;;;14.20;62.09;101615.53;4974793;28;47071;-79
2022/11/29 11:03:41;;;;;;;;;33.75;32.25;;;;;14.29;61.46;101618.56;4949213;28;45458;-78
2022/11/29 11:06:16;;;;;;;;;40.25;34.25;;;;;14.05;61.16;101611.97;4975195;28;45426;-78
2022/11/29 11:08:53;;;;;;;;;38.50;33.25;;;;;14.08;61.95;101607.28;4975210;28;45395;-78
2022/11/29 11:11:30;;;;;;;;;40.00;33.50;;;;;13.78;61.84;101525.06;4974739;28;46882;-78
2022/11/29 11:13:59;;;;;;;;;34.00;33.50;;;;;14.37;61.92;101601.09;4974981;28;45409;-79
2022/11/29 11:16:25;;;;;;;;;44.00;37.75;;;;;14.46;61.67;101601.38;4984228;28;45361;-78
2022/11/29 11:18:51;;;;;;;;;40.00;34.25;;;;;14.59;61.16;101606.88;4994730;28;45513;-78
2022/11/29 11:21:19;;;;;;;;;38.25;34.75;;;;;14.62;61.47;101611.19;4994316;28;46237;-78
2022/11/29 11:23:51;;;;;;;;;35.50;31.25;;;;;14.70;61.30;101613.41;4994699;28;45579;-78
2022/11/29 11:26:17;;;;;;;;;46.50;36.25;;;;;14.39;61.12;101583.09;4994425;28;45441;-78
2022/11/29 11:28:45;;;;;;;;;37.25;35.00;;;;;14.45;60.66;101609.53;4960247;28;45496;-79
2022/11/29 11:31:12;;;;;;;;;40.50;34.50;;;;;14.09;60.92;101538.41;4994172;28;45476;-79
2022/11/29 11:33:42;;;;;;;;;33.25;29.25;;;;;14.21;61.18;101575.22;4994189;28;45407;-79
2022/11/29 11:36:10;;;;;;;;;39.25;33.50;;;;;14.52;61.04;101601.97;4994522;28;45431;-79
2022/11/29 11:38:57;;;;;;;;;33.00;28.25;;;;;14.65;61.30;101597.59;4976759;28;45538;-79
2022/11/29 11:44:30;;;;;;;;;34.50;30.50;;;;;14.66;59.90;101609.19;4993995;28;45423;-79
2022/11/29 11:46:56;;;;;;;;;38.50;36.00;;;;;14.67;60.66;101603.75;4994243;28;45446;-79
2022/11/29 11:49:47;;;;;;;;;32.25;27.00;;;;;14.66;59.70;101610.06;4992156;28;45330;-79
2022/11/29 11:52:19;;;;;;;;;33.50;30.50;;;;;14.19;61.01;101571.75;4985744;28;45403;-79
2022/11/29 11:54:50;;;;;;;;;36.50;33.25;;;;;14.52;61.13;101607.34;4974938;28;45429;-80
2022/11/29 11:57:17;;;;;;;;;36.50;32.25;;;;;14.55;61.10;101591.03;4994018;28;45458;-79
2022/11/29 11:59:47;;;;;;;;;40.25;34.00;;;;;14.16;60.40;101544.25;4993873;28;45428;-79
2022/11/29 12:02:38;;;;;;;;;38.50;34.00;;;;;14.55;61.28;101610.72;4994078;28;47270;-79
2022/11/29 12:05:14;;;;;;;;;39.75;34.75;;;;;14.58;60.16;101598.91;4995073;28;45435;-79